createdAt,value
2023-02-09T00:02:23.355Z,95.40
2023-02-09T00:04:54.451Z,94.40
2023-02-09T00:07:25.333Z,94.20
2023-02-09T00:09:55.978Z,94.60
2023-02-09T00:12:44.574Z,94.20
2023-02-09T00:15:15.568Z,94.10
2023-02-09T00:17:46.257Z,94.50
2023-02-09T00:20:39.369Z,95.30
2023-02-09T00:23:10.008Z,94.40
2023-02-09T00:25:46.703Z,94.30
2023-02-09T00:28:17.682Z,95.70
2023-02-09T00:30:49.283Z,94.70
2023-02-09T00:33:24.892Z,94.30
2023-02-09T00:35:57.987Z,94.30
2023-02-09T00:38:29.146Z,94.10
2023-02-09T00:41:00.284Z,96.20
2023-02-09T00:43:34.572Z,94.30
2023-02-09T00:46:09.247Z,95.50
2023-02-09T00:48:40.609Z,95.30
2023-02-09T00:51:11.627Z,94.60
2023-02-09T00:53:46.671Z,96.20
2023-02-09T00:56:19.872Z,94.40
2023-02-09T00:58:50.895Z,95.90
2023-02-09T01:01:31.870Z,94.60
2023-02-09T01:04:03.149Z,94.60
2023-02-09T01:06:34.763Z,95.50
2023-02-09T01:09:06.302Z,95.60
2023-02-09T01:11:37.450Z,94.60
2023-02-09T01:14:09.280Z,95.60
2023-02-09T01:16:48.424Z,94.50
2023-02-09T01:19:41.068Z,94.50
2023-02-09T01:22:13.952Z,94.50
2023-02-09T01:24:44.985Z,94.40
2023-02-09T01:27:15.913Z,94.20
2023-02-09T01:29:52.832Z,94.10
2023-02-09T01:32:23.948Z,94.20
2023-02-09T01:34:57.707Z,94.00
2023-02-09T01:37:29.451Z,94.20
2023-02-09T01:40:00.690Z,94.30
2023-02-09T01:45:27.036Z,94.10
2023-02-09T01:48:13.629Z,94.60
2023-02-09T01:50:56.567Z,96.10
2023-02-09T01:53:28.332Z,94.50
2023-02-09T01:58:54.205Z,96.50
2023-02-09T02:01:26.895Z,95.60
2023-02-09T02:03:57.913Z,95.90
2023-02-09T02:06:48.598Z,95.20
2023-02-09T02:09:20.288Z,94.90
2023-02-09T02:11:52.576Z,94.70
2023-02-09T02:14:40.940Z,94.80
2023-02-09T02:17:27.514Z,94.60
2023-02-09T02:20:26.261Z,95.00
2023-02-09T02:23:07.842Z,94.80
2023-02-09T02:25:38.837Z,94.90
2023-02-09T02:28:48.000Z,96.50
2023-02-09T02:31:46.625Z,94.90
2023-02-09T02:34:52.123Z,95.10
2023-02-09T02:37:54.097Z,94.90
2023-02-09T02:40:37.369Z,95.60
2023-02-09T02:43:12.085Z,95.90
2023-02-09T02:45:56.844Z,94.60
2023-02-09T02:48:36.833Z,94.60
2023-02-09T02:51:20.156Z,94.80
2023-02-09T02:53:56.549Z,95.80
2023-02-09T02:56:45.153Z,94.90
2023-02-09T02:59:24.731Z,94.70
2023-02-09T03:02:02.268Z,94.90
2023-02-09T03:04:35.014Z,94.60
2023-02-09T03:07:10.385Z,94.50
2023-02-09T03:09:54.833Z,94.30
2023-02-09T03:12:56.472Z,94.90
2023-02-09T03:15:48.994Z,94.90
2023-02-09T03:18:39.629Z,95.80
2023-02-09T03:21:39.869Z,95.30
2023-02-09T03:24:21.421Z,95.20
2023-02-09T03:26:57.497Z,96.50
2023-02-09T03:29:34.296Z,95.70
2023-02-09T03:32:05.573Z,95.20
2023-02-09T03:34:36.913Z,96.30
2023-02-09T03:37:07.567Z,95.10
2023-02-09T03:39:38.691Z,94.70
2023-02-09T03:42:32.522Z,96.80
2023-02-09T03:45:03.903Z,96.10
2023-02-09T03:47:35.367Z,95.00
2023-02-09T03:50:08.648Z,94.80
2023-02-09T03:52:39.882Z,94.80
2023-02-09T03:55:11.103Z,94.70
2023-02-09T03:57:42.092Z,95.10
2023-02-09T04:00:14.130Z,94.80
2023-02-09T04:02:46.717Z,94.60
2023-02-09T04:05:17.806Z,94.30
2023-02-09T04:07:49.135Z,94.50
2023-02-09T04:10:20.804Z,94.30
2023-02-09T04:12:51.812Z,94.50
2023-02-09T04:15:23.133Z,94.20
2023-02-09T04:17:55.501Z,94.20
2023-02-09T04:20:26.671Z,95.00
2023-02-09T04:23:21.182Z,94.00
2023-02-09T04:25:52.401Z,94.60
2023-02-09T04:28:23.655Z,95.00
2023-02-09T04:30:59.557Z,95.20
2023-02-09T04:33:31.136Z,95.10
2023-02-09T04:36:02.441Z,94.90
2023-02-09T04:38:33.616Z,95.30
2023-02-09T04:41:08.420Z,94.90
2023-02-09T04:44:00.027Z,94.70
2023-02-09T04:46:31.261Z,94.40
2023-02-09T04:49:02.596Z,95.00
2023-02-09T04:51:56.821Z,95.10
2023-02-09T04:54:28.349Z,94.60
2023-02-09T04:57:17.648Z,95.30
2023-02-09T04:59:48.956Z,94.40
2023-02-09T05:02:21.588Z,94.50
2023-02-09T05:04:53.920Z,94.10
2023-02-09T05:07:26.939Z,94.50
2023-02-09T05:09:57.996Z,94.40
2023-02-09T05:12:29.277Z,94.30
2023-02-09T05:15:00.338Z,94.10
2023-02-09T05:17:33.190Z,94.50
2023-02-09T05:20:05.704Z,94.90
2023-02-09T05:22:37.282Z,94.10
2023-02-09T05:25:08.886Z,94.40
2023-02-09T05:27:40.182Z,94.30
2023-02-09T05:30:12.274Z,94.30
2023-02-09T05:32:44.300Z,94.70
2023-02-09T05:35:16.811Z,94.30
2023-02-09T05:38:10.046Z,94.10
2023-02-09T05:40:44.850Z,94.40
2023-02-09T05:43:16.032Z,95.10
2023-02-09T05:45:47.565Z,94.10
2023-02-09T05:51:02.207Z,94.80
2023-02-09T05:53:33.511Z,94.60
2023-02-09T05:56:04.820Z,94.90
2023-02-09T05:58:36.088Z,95.90
2023-02-09T06:01:07.219Z,94.70
2023-02-09T06:03:38.744Z,94.60
2023-02-09T06:06:40.053Z,94.80
2023-02-09T06:09:14.273Z,94.40
2023-02-09T06:12:06.651Z,94.90
2023-02-09T06:14:37.809Z,96.00
2023-02-09T06:17:13.467Z,95.80
2023-02-09T06:19:44.763Z,94.90
2023-02-09T06:22:16.216Z,95.20
2023-02-09T06:24:47.325Z,95.30
2023-02-09T06:30:02.008Z,95.00
2023-02-09T06:32:42.906Z,95.00
2023-02-09T06:35:17.828Z,95.60
2023-02-09T06:37:49.022Z,95.10
2023-02-09T06:40:20.350Z,96.20
2023-02-09T06:42:51.350Z,96.00
2023-02-09T06:45:42.774Z,95.90
2023-02-09T06:48:14.137Z,96.50
2023-02-09T06:50:45.960Z,96.40
2023-02-09T06:53:18.847Z,96.80
2023-02-09T06:56:10.179Z,98.20
2023-02-09T06:58:42.480Z,97.80
2023-02-09T07:01:17.417Z,98.40
2023-02-09T07:03:50.301Z,99.50
2023-02-09T07:06:22.837Z,98.80
2023-02-09T07:09:15.720Z,99.30
2023-02-09T07:11:47.941Z,99.00
2023-02-09T07:14:19.178Z,97.90
2023-02-09T07:17:10.808Z,97.80
2023-02-09T07:19:46.661Z,97.70
2023-02-09T07:22:17.509Z,97.60
2023-02-09T07:24:54.602Z,98.40
2023-02-09T07:27:29.314Z,97.50
2023-02-09T07:30:25.246Z,97.40
2023-02-09T07:32:56.461Z,98.10
2023-02-09T07:35:27.426Z,98.50
2023-02-09T07:37:58.433Z,98.20
2023-02-09T07:40:29.553Z,97.70
2023-02-09T07:43:00.685Z,97.70
2023-02-09T07:45:31.826Z,97.80
2023-02-09T07:48:06.689Z,97.30
2023-02-09T07:50:57.597Z,97.20
2023-02-09T07:53:29.307Z,97.80
2023-02-09T07:56:03.236Z,97.30
2023-02-09T07:58:54.677Z,97.50
2023-02-09T08:01:27.493Z,96.80
2023-02-09T08:04:23.137Z,97.40
2023-02-09T08:06:54.539Z,96.90
2023-02-09T08:09:25.690Z,96.60
2023-02-09T08:12:04.183Z,96.40
2023-02-09T08:14:45.095Z,96.90
2023-02-09T08:17:24.524Z,96.50
2023-02-09T08:20:06.880Z,96.60
2023-02-09T08:22:40.849Z,96.60
2023-02-09T08:25:13.728Z,96.90
2023-02-09T08:27:48.509Z,96.70
2023-02-09T08:30:20.687Z,96.70
2023-02-09T08:33:14.974Z,96.10
2023-02-09T08:35:46.620Z,95.90
2023-02-09T08:38:19.441Z,96.20
2023-02-09T08:40:50.819Z,96.30
2023-02-09T08:43:22.255Z,96.00
2023-02-09T08:45:54.163Z,96.00
2023-02-09T08:48:27.954Z,95.70
2023-02-09T08:50:59.099Z,95.50
2023-02-09T08:53:31.164Z,95.60
2023-02-09T08:56:02.764Z,96.00
2023-02-09T08:58:35.062Z,95.60
2023-02-09T09:01:07.047Z,95.60
2023-02-09T09:03:38.142Z,95.40
2023-02-09T09:06:12.427Z,95.30
2023-02-09T09:08:47.907Z,95.50
2023-02-09T09:11:19.546Z,95.80
2023-02-09T09:13:51.032Z,95.40
2023-02-09T09:16:27.670Z,95.10
2023-02-09T09:22:02.745Z,95.60
2023-02-09T09:24:42.150Z,95.40
2023-02-09T09:27:15.024Z,95.30
2023-02-09T09:29:46.138Z,95.10
2023-02-09T09:32:26.022Z,95.20
2023-02-09T09:34:59.212Z,95.30
2023-02-09T09:37:32.395Z,95.20
2023-02-09T09:40:03.740Z,94.90
2023-02-09T09:42:43.455Z,94.80
2023-02-09T09:45:18.104Z,94.80
2023-02-09T09:48:09.211Z,94.70
2023-02-09T09:50:46.065Z,95.10
2023-02-09T09:53:43.481Z,94.70
2023-02-09T09:56:17.636Z,94.70
2023-02-09T09:58:49.079Z,94.80
2023-02-09T10:01:22.861Z,95.10
2023-02-09T10:04:29.461Z,95.30
2023-02-09T10:07:12.329Z,95.40
2023-02-09T10:09:53.003Z,95.20
2023-02-09T10:12:51.298Z,95.20
2023-02-09T10:15:35.319Z,94.90
2023-02-09T10:18:27.834Z,94.70
2023-02-09T10:21:08.687Z,95.00
2023-02-09T10:23:51.891Z,94.80
2023-02-09T10:27:07.162Z,94.80
2023-02-09T10:29:38.438Z,94.60
2023-02-09T10:32:40.072Z,94.70
2023-02-09T10:35:43.887Z,94.60
2023-02-09T10:38:33.021Z,94.60
2023-02-09T10:41:11.263Z,94.80
2023-02-09T10:43:43.599Z,94.70
2023-02-09T10:46:21.703Z,94.40
2023-02-09T10:48:53.193Z,95.00
2023-02-09T10:51:34.014Z,94.70
2023-02-09T10:54:09.145Z,94.50
2023-02-09T10:56:51.854Z,94.60
2023-02-09T11:02:38.593Z,94.90
2023-02-09T11:05:24.551Z,94.70
2023-02-09T11:08:00.178Z,94.70
2023-02-09T11:10:37.038Z,95.00
2023-02-09T11:13:26.736Z,95.00
2023-02-09T11:16:17.964Z,95.00
2023-02-09T11:18:58.776Z,95.00
2023-02-09T11:22:00.131Z,95.20
2023-02-09T11:27:54.231Z,94.70
2023-02-09T11:30:30.699Z,94.60
2023-02-09T11:33:07.453Z,95.10
2023-02-09T11:36:23.276Z,94.50
2023-02-09T11:39:04.537Z,94.40
2023-02-09T11:42:01.074Z,94.50
2023-02-09T11:44:36.975Z,94.50
2023-02-09T11:47:37.869Z,94.50
2023-02-09T11:50:38.523Z,94.70
2023-02-09T11:53:26.988Z,94.60
2023-02-09T11:56:04.993Z,95.50
2023-02-09T11:58:45.192Z,95.00
2023-02-09T12:01:42.998Z,94.80
2023-02-09T12:04:45.029Z,94.80
2023-02-09T12:07:27.033Z,94.70
2023-02-09T12:10:29.043Z,94.60
2023-02-09T12:13:31.997Z,94.40
2023-02-09T12:18:59.414Z,94.40
2023-02-09T12:21:40.210Z,94.30
2023-02-09T12:24:41.083Z,94.40
2023-02-09T12:27:28.474Z,95.30
2023-02-09T12:30:00.552Z,94.70
2023-02-09T12:32:52.093Z,94.80
2023-02-09T12:35:39.947Z,94.60
2023-02-09T12:38:53.619Z,94.80
2023-02-09T12:44:23.795Z,94.90
2023-02-09T12:47:00.817Z,94.70
2023-02-09T12:49:34.277Z,94.80
2023-02-09T12:52:07.158Z,94.80
2023-02-09T12:55:00.714Z,95.20
2023-02-09T12:57:53.666Z,94.70
2023-02-09T13:03:23.430Z,94.90
2023-02-09T13:06:02.083Z,94.70
2023-02-09T13:14:37.742Z,94.40
2023-02-09T13:20:47.443Z,94.40
2023-02-09T13:23:21.488Z,94.40
2023-02-09T13:26:01.754Z,94.30
2023-02-09T13:31:35.538Z,95.40
2023-02-09T13:34:27.352Z,94.50
2023-02-09T13:37:24.698Z,94.30
2023-02-09T13:43:24.348Z,94.20
2023-02-09T13:45:58.539Z,94.10
2023-02-09T13:51:22.866Z,94.30
2023-02-09T13:54:03.667Z,94.20
2023-02-09T13:56:38.596Z,94.20
2023-02-09T13:59:29.622Z,94.40
2023-02-09T14:05:45.545Z,95.60
2023-02-09T14:08:20.296Z,95.90
2023-02-09T14:11:02.635Z,95.20
2023-02-09T14:14:09.335Z,95.60
2023-02-09T14:16:53.819Z,96.70
2023-02-09T14:19:42.391Z,94.80
2023-02-09T14:22:47.534Z,95.40
2023-02-09T14:28:08.123Z,94.70
2023-02-09T14:30:40.620Z,95.00
2023-02-09T14:33:30.341Z,94.60
2023-02-09T14:36:07.637Z,94.50
2023-02-09T14:38:49.190Z,94.70
2023-02-09T14:41:35.937Z,94.30
2023-02-09T14:44:11.497Z,94.30
2023-02-09T14:46:54.979Z,94.70
2023-02-09T14:52:17.644Z,94.50
2023-02-09T14:54:52.540Z,95.00
2023-02-09T15:00:32.535Z,94.60
2023-02-09T15:03:05.114Z,94.50
2023-02-09T15:05:36.828Z,94.40
2023-02-09T15:08:10.443Z,94.30
2023-02-09T15:10:47.413Z,94.20
2023-02-09T15:13:18.624Z,94.20
2023-02-09T15:15:55.792Z,94.40
2023-02-09T15:18:29.171Z,94.30
2023-02-09T15:21:01.277Z,94.00
2023-02-09T15:23:32.944Z,94.20
2023-02-09T15:26:30.383Z,94.00
2023-02-09T15:29:03.089Z,94.10
2023-02-09T15:31:45.116Z,94.30
2023-02-09T15:34:16.550Z,94.20
2023-02-09T15:39:38.442Z,94.10
2023-02-09T15:42:47.109Z,93.90
2023-02-09T15:45:43.252Z,93.90
2023-02-09T15:48:16.755Z,93.90
2023-02-09T15:50:55.757Z,94.10
2023-02-09T15:53:28.373Z,93.90
2023-02-09T15:55:59.923Z,93.80
2023-02-09T15:58:36.710Z,93.70
2023-02-09T16:01:09.102Z,93.70
2023-02-09T16:03:40.463Z,94.00
2023-02-09T16:06:25.947Z,93.90
2023-02-09T16:09:02.917Z,93.90
2023-02-09T16:11:42.664Z,93.90
2023-02-09T16:14:26.475Z,93.80
2023-02-09T16:16:59.377Z,93.80
2023-02-09T16:19:31.151Z,93.70
2023-02-09T16:22:06.926Z,93.60
2023-02-09T16:24:49.860Z,93.60
2023-02-09T16:27:35.498Z,93.70
2023-02-09T16:30:26.009Z,93.60
2023-02-09T16:35:46.271Z,93.70
2023-02-09T16:38:23.090Z,93.70
2023-02-09T16:40:57.722Z,93.70
2023-02-09T16:43:28.626Z,93.70
2023-02-09T16:46:21.412Z,94.10
2023-02-09T16:49:40.187Z,93.80
2023-02-09T16:52:18.178Z,93.60
2023-02-09T16:57:46.268Z,93.70
2023-02-09T17:00:39.893Z,93.60
2023-02-09T17:03:43.289Z,93.70
2023-02-09T17:09:23.860Z,93.60
2023-02-09T17:11:54.857Z,93.80
2023-02-09T17:14:25.944Z,93.80
2023-02-09T17:17:01.921Z,93.80
2023-02-09T17:19:48.000Z,93.70
2023-02-09T17:22:20.576Z,93.60
2023-02-09T17:24:51.439Z,93.70
2023-02-09T17:27:22.624Z,93.60
2023-02-09T17:29:58.499Z,93.50
2023-02-09T17:33:03.330Z,93.50
2023-02-09T17:36:10.153Z,93.50
2023-02-09T17:38:47.656Z,93.40
2023-02-09T17:41:46.062Z,93.50
2023-02-09T17:44:39.511Z,93.40
2023-02-09T17:47:19.017Z,93.70
2023-02-09T17:49:52.516Z,93.60
2023-02-09T17:52:25.204Z,93.50
2023-02-09T17:54:57.686Z,93.60
2023-02-09T17:57:54.420Z,93.50
2023-02-09T18:00:26.210Z,93.50
2023-02-09T18:02:57.569Z,93.50
2023-02-09T18:05:30.206Z,93.40
2023-02-09T18:08:10.018Z,93.40
2023-02-09T18:10:47.957Z,93.40
2023-02-09T18:13:22.919Z,93.40
2023-02-09T18:16:02.848Z,93.60
2023-02-09T18:18:34.296Z,93.30
2023-02-09T18:21:10.518Z,93.50
2023-02-09T18:23:42.694Z,93.50
2023-02-09T18:26:13.902Z,93.60
2023-02-09T18:28:45.309Z,93.50
2023-02-09T18:31:20.984Z,93.40
2023-02-09T18:33:55.706Z,93.40
2023-02-09T18:36:36.607Z,93.30
2023-02-09T18:39:08.063Z,93.30
2023-02-09T18:41:41.255Z,93.20
2023-02-09T18:44:13.090Z,93.20
2023-02-09T18:46:52.888Z,93.20
2023-02-09T18:49:24.222Z,93.20
2023-02-09T18:51:55.666Z,93.20
2023-02-09T18:54:31.529Z,93.30
2023-02-09T18:57:11.449Z,93.30
2023-02-09T18:59:46.801Z,93.40
2023-02-09T19:02:18.523Z,93.30
2023-02-09T19:04:49.446Z,93.20
2023-02-09T19:07:20.432Z,93.30
2023-02-09T19:09:58.259Z,93.30
2023-02-09T19:12:29.118Z,93.20
2023-02-09T19:15:05.926Z,93.20
2023-02-09T19:17:37.264Z,93.20
2023-02-09T19:20:18.516Z,93.10
2023-02-09T19:22:52.627Z,93.00
2023-02-09T19:25:23.969Z,93.10
2023-02-09T19:28:03.923Z,93.40
2023-02-09T19:30:35.408Z,93.30
2023-02-09T19:33:06.641Z,93.30
2023-02-09T19:35:37.715Z,93.30
2023-02-09T19:38:08.680Z,93.20
2023-02-09T19:41:10.666Z,93.30
2023-02-09T19:43:43.241Z,93.10
2023-02-09T19:46:14.679Z,93.10
2023-02-09T19:48:48.017Z,93.10
2023-02-09T19:51:19.024Z,93.10
2023-02-09T19:53:50.112Z,93.10
2023-02-09T19:56:25.207Z,93.00
2023-02-09T19:58:56.379Z,93.00
2023-02-09T20:01:28.365Z,93.20
2023-02-09T20:03:59.646Z,93.20
2023-02-09T20:06:31.133Z,93.20
2023-02-09T20:09:02.530Z,93.20
2023-02-09T20:11:35.023Z,93.20
2023-02-09T20:14:06.980Z,93.10
2023-02-09T20:16:38.214Z,93.10
2023-02-09T20:19:09.338Z,93.00
2023-02-09T20:21:41.448Z,93.10
2023-02-09T20:24:14.132Z,93.10
2023-02-09T20:26:48.689Z,93.10
2023-02-09T20:29:20.805Z,93.40
2023-02-09T20:31:51.898Z,93.20
2023-02-09T20:34:22.790Z,93.10
2023-02-09T20:36:53.741Z,93.50
2023-02-09T20:39:25.331Z,93.20
2023-02-09T20:42:19.228Z,93.20
2023-02-09T20:45:08.068Z,93.10
2023-02-09T20:47:39.111Z,93.10
2023-02-09T20:50:29.511Z,93.20
2023-02-09T20:53:00.542Z,93.00
2023-02-09T20:55:31.632Z,93.00
2023-02-09T20:58:02.294Z,93.00
2023-02-09T21:00:33.264Z,93.00
2023-02-09T21:03:04.368Z,93.00
2023-02-09T21:05:35.815Z,93.00
2023-02-09T21:08:08.454Z,93.00
2023-02-09T21:10:39.753Z,93.10
2023-02-09T21:13:11.379Z,93.10
2023-02-09T21:15:43.789Z,93.10
2023-02-09T21:18:14.838Z,93.10
2023-02-09T21:20:46.380Z,93.20
2023-02-09T21:23:18.421Z,93.10
2023-02-09T21:25:49.449Z,93.20
2023-02-09T21:28:20.403Z,93.00
2023-02-09T21:30:51.333Z,93.10
2023-02-09T21:33:22.356Z,93.20
2023-02-09T21:35:53.895Z,93.00
2023-02-09T21:38:34.091Z,93.00
2023-02-09T21:41:37.326Z,93.00
2023-02-09T21:44:11.163Z,93.10
2023-02-09T21:46:42.130Z,93.20
2023-02-09T21:49:14.963Z,93.20
2023-02-09T21:51:45.875Z,93.10
2023-02-09T21:54:18.928Z,93.10
2023-02-09T21:57:09.686Z,93.00
2023-02-09T22:00:08.818Z,93.70
2023-02-09T22:02:40.376Z,93.20
2023-02-09T22:05:11.566Z,93.10
2023-02-09T22:07:42.653Z,93.50
2023-02-09T22:10:14.192Z,93.10
2023-02-09T22:12:45.141Z,93.30
2023-02-09T22:15:31.199Z,93.50
2023-02-09T22:18:02.211Z,93.70
2023-02-09T22:20:33.147Z,93.70
2023-02-09T22:23:04.197Z,93.60
2023-02-09T22:25:36.453Z,93.60
2023-02-09T22:28:07.811Z,93.50
2023-02-09T22:30:38.862Z,93.40
2023-02-09T22:33:33.834Z,93.30
2023-02-09T22:36:09.503Z,93.30
2023-02-09T22:38:41.670Z,93.20
2023-02-09T22:41:25.268Z,93.30
2023-02-09T22:43:58.567Z,93.20
2023-02-09T22:46:32.739Z,93.10
2023-02-09T22:49:09.353Z,93.20
2023-02-09T22:51:43.278Z,93.10
2023-02-09T22:54:17.892Z,93.20
2023-02-09T22:56:49.276Z,93.30
2023-02-09T22:59:20.408Z,93.30
2023-02-09T23:01:51.729Z,93.30
2023-02-09T23:04:22.978Z,93.30
2023-02-09T23:06:54.140Z,93.20
2023-02-09T23:09:25.182Z,93.20
2023-02-09T23:11:56.440Z,93.10
2023-02-09T23:14:27.355Z,93.30
2023-02-09T23:16:58.492Z,93.10
2023-02-09T23:19:29.475Z,93.10
2023-02-09T23:22:20.136Z,93.00
2023-02-09T23:24:51.073Z,93.00
2023-02-09T23:27:22.060Z,93.10
2023-02-09T23:29:53.125Z,93.10
2023-02-09T23:32:24.118Z,93.10
2023-02-09T23:35:14.878Z,93.20
2023-02-09T23:37:46.159Z,93.20
2023-02-09T23:40:17.964Z,93.10
2023-02-09T23:42:48.978Z,93.10
2023-02-09T23:45:19.880Z,93.10
2023-02-09T23:47:50.850Z,93.90
2023-02-09T23:50:21.882Z,94.50
2023-02-09T23:52:52.565Z,93.50
2023-02-09T23:55:23.456Z,94.00
2023-02-09T23:58:20.262Z,93.40
